Truth Or Consequences, NM

2:40 PM MDT on April 30, 2017 (GMT -0600)
Truth Or Consequences Municipal | | Change Station

Elev 4852 ft 33.24 °N, 107.27 °W | Updated 47 minutes ago

Clear
Clear
68 °F
Feels Like 68 °F
N
7
Wind Variable Wind from North
Gusts 18 mph

Today
High -- | Low -- °F
--% Chance of Precip.
Yesterday
High -- | Low -- °F
Precip. -- in
Pressure 29.88 in
Visibility 10.0 miles
Clouds Clear
Dew Point 10 °F
Humidity 11%
Rainfall 0.00 in
Snow Depth Not available.
6:21 AM 7:51 PM
Waxing Crescent, 26% visible
METAR KTCS 301953Z AUTO 36006G16KT 10SM CLR 20/M12 A3001 RMK AO2 PK WND 33026/1941 SLP119 T02001122 $
Pressure 29.88 in
Visibility 10.0 miles
Clouds Clear
Dew Point 10 °F
Humidity 11%
Rainfall 0.00 in
Snow Depth Not available.
6:21 AM 7:51 PM
Waxing Crescent, 26% visible
METAR KTCS 301953Z AUTO 36006G16KT 10SM CLR 20/M12 A3001 RMK AO2 PK WND 33026/1941 SLP119 T02001122 $

Get Severe Weather Alerts

Thanks for signing up!

Be on the lookout for a verification email in your inbox.

You'll start receiving the daily forecast at 8 AM.

×

10-Day Weather Forecast

Almanac

Astronomy

Apr. 30, 2017 Rise Set
Actual Time
Civil Twilight
Nautical Twilight
Astronomical Twilight
Moon
Length of Visible Light
Length of Day
Tomorrow will be .
, % of the Moon is Illuminated

Today's Extremes

State Highs State Lows

Community

WunderPhotos

WunderBlog® & News

Nearby

Air Quality

  Air Quality AQ Index Pollutant
Not available.

Snow Depth

Station Depth Elevation

Earthquake Activity

City Distance Mag. Time & Date
Minimum magnitude displayed is 2.5.

Coastal Water Temperatures

Place Temperature

Stations

Nearby Weather Stations

Station Location Temp. Windchill Dew Point Humidity Wind Precip. Elev Updated Type
                   

Watches & Warnings

There are currently no watches in effect.